.
WxDataArchive / Data Records for 2014-08-09
2014-08-08 August 2014 2014-08-10

Data Records for Saturday, 09 August 2014

Time	Temp	Chill	HIndex	Humid	Dewpt	 Wind 	HiWind	WindDir	Rain 	Barom
-----	----	-----	------	-----	-----	------	------	-------	-----	-----
00:00	64.7	64.7	64.7	71	55.1	0	0	---	0.00	30.057 
00:05	64.5	64.5	64.5	72	55.3	0	0	---	0.00	30.057 
00:10	64.3	64.3	64.3	72	55.1	0	0	---	0.00	30.057 
00:15	64.2	64.2	64.2	73	55.4	0	0	---	0.00	30.063 
00:20	64.0	64.0	64.0	73	55.2	0	0	---	0.00	30.063 
00:25	63.9	63.9	63.9	74	55.4	0	0	---	0.00	30.063 
00:30	63.9	63.9	63.9	74	55.4	0	1	90	0.00	30.062 
00:35	63.9	63.9	63.9	75	55.8	0	1	90	0.00	30.062 
00:40	63.9	63.9	63.9	76	56.2	0	2	90	0.00	30.062 
00:45	63.9	63.9	63.9	76	56.2	1	3	90	0.00	30.049 
00:50	63.9	63.9	63.9	76	56.2	1	3	90	0.00	30.049 
00:55	63.7	63.7	63.7	77	56.3	1	3	90	0.00	30.049 
01:00	63.7	63.7	63.7	77	56.3	1	3	90	0.00	30.043 
01:05	63.5	63.5	63.5	77	56.2	0	3	90	0.00	30.043 
01:10	63.5	63.5	63.5	78	56.5	0	1	90	0.00	30.043 
01:15	63.4	63.4	63.4	78	56.4	0	2	90	0.00	30.041 
01:20	63.4	63.4	63.4	78	56.4	0	2	90	0.00	30.041 
01:25	63.2	63.2	63.2	79	56.6	0	2	90	0.00	30.041 
01:30	63.2	63.2	63.2	79	56.6	0	2	90	0.00	30.044 
01:35	63.1	63.1	63.1	79	56.5	0	2	90	0.00	30.044 
01:40	62.9	62.9	62.9	80	56.6	0	2	90	0.00	30.044 
01:45	62.7	62.7	62.7	80	56.4	0	2	90	0.00	30.047 
01:50	62.6	62.6	62.6	80	56.3	0	1	90	0.00	30.047 
01:55	62.4	62.4	62.4	81	56.5	0	1	90	0.00	30.047 
02:00	62.4	62.4	62.4	81	56.5	0	1	90	0.00	30.048 
02:05	62.3	62.3	62.3	81	56.4	0	1	90	0.00	30.048 
02:10	62.1	62.1	62.1	82	56.5	0	1	90	0.00	30.048 
02:15	62.1	62.1	62.1	82	56.5	0	0	---	0.00	30.049 
02:20	62.0	62.0	62.0	82	56.4	0	0	---	0.00	30.049 
02:25	61.8	61.8	61.8	83	56.6	0	0	---	0.00	30.049 
02:30	61.6	61.6	61.6	83	56.4	0	0	---	0.00	30.050 
02:35	61.5	61.5	61.5	84	56.6	0	0	---	0.00	30.050 
02:40	61.5	61.5	61.5	84	56.6	0	0	---	0.00	30.050 
02:45	61.3	61.3	61.3	84	56.4	0	0	---	0.00	30.051 
02:50	61.3	61.3	61.3	84	56.4	0	0	---	0.00	30.051 
02:55	61.3	61.3	61.3	84	56.4	0	0	---	0.00	30.051 
03:00	61.3	61.3	61.3	84	56.4	0	0	---	0.00	30.052 
03:05	61.2	61.2	61.2	84	56.3	0	0	---	0.00	30.052 
03:10	61.2	61.2	61.2	85	56.6	0	0	---	0.00	30.052 
03:15	61.3	61.3	61.3	85	56.7	0	1	90	0.00	30.048 
03:20	61.3	61.3	61.3	85	56.7	0	1	90	0.00	30.048 
03:25	61.3	61.3	61.3	85	56.7	0	1	90	0.00	30.048 
03:30	61.5	61.5	61.5	85	56.9	0	1	90	0.00	30.044 
03:35	61.5	61.5	61.5	85	56.9	0	2	90	0.00	30.044 
03:40	61.5	61.5	61.5	85	56.9	0	2	90	0.00	30.044 
03:45	61.5	61.5	61.5	85	56.9	0	3	90	0.00	30.035 
03:50	61.6	61.6	61.6	85	57.0	0	2	90	0.00	30.035 
03:55	61.5	61.5	61.5	85	56.9	0	2	90	0.00	30.035 
04:00	61.5	61.5	61.5	85	56.9	0	2	90	0.00	30.045 
04:05	61.5	61.5	61.5	85	56.9	0	2	90	0.00	30.045 
04:10	61.5	61.5	61.5	85	56.9	0	2	90	0.00	30.045 
04:15	61.5	61.5	61.5	85	56.9	0	2	90	0.00	30.048 
04:20	61.5	61.5	61.5	85	56.9	0	2	90	0.00	30.048 
04:25	61.5	61.5	61.5	86	57.3	0	2	90	0.00	30.048 
04:30	61.5	61.5	61.5	86	57.3	0	0	---	0.00	30.049 
04:35	61.3	61.3	61.3	86	57.1	0	1	90	0.00	30.049 
04:40	61.3	61.3	61.3	86	57.1	0	1	90	0.00	30.049 
04:45	61.3	61.3	61.3	86	57.1	0	0	---	0.00	30.057 
04:50	61.3	61.3	61.3	86	57.1	0	2	90	0.00	30.057 
04:55	61.5	61.5	61.5	86	57.3	0	1	90	0.00	30.057 
05:00	61.5	61.5	61.5	86	57.3	0	1	90	0.00	30.051 
05:05	61.5	61.5	61.5	86	57.3	0	1	90	0.00	30.051 
05:10	61.6	61.6	61.6	86	57.4	0	1	90	0.00	30.051 
05:15	61.6	61.6	61.6	86	57.4	0	2	90	0.00	30.051 
05:20	61.8	61.8	61.8	86	57.6	0	2	90	0.00	30.051 
05:25	61.8	61.8	61.8	85	57.2	0	2	90	0.00	30.051 
05:30	62.0	62.0	62.0	85	57.4	0	2	90	0.00	30.053 
05:35	62.0	62.0	62.0	85	57.4	0	4	90	0.00	30.053 
05:40	62.1	62.1	62.1	84	57.2	1	3	90	0.00	30.053 
05:45	62.1	62.1	62.1	84	57.2	0	2	90	0.00	30.052 
05:50	62.3	62.3	62.3	84	57.4	1	3	90	0.00	30.052 
05:55	62.3	62.3	62.3	84	57.4	0	2	90	0.00	30.052 
06:00	62.1	62.1	62.1	84	57.2	0	2	90	0.00	30.053 
06:05	62.1	62.1	62.1	84	57.2	0	5	112	0.00	30.053 
06:10	62.1	62.1	62.1	85	57.5	1	5	112	0.00	30.053 
06:15	62.0	62.0	62.0	85	57.4	1	3	112	0.00	30.053 
06:20	62.0	62.0	62.0	85	57.4	0	2	112	0.00	30.053 
06:25	61.8	61.8	61.8	85	57.2	0	4	112	0.00	30.053 
06:30	61.8	61.8	61.8	85	57.2	0	2	112	0.00	30.056 
06:35	61.6	61.6	61.6	86	57.4	0	2	112	0.00	30.056 
06:40	61.6	61.6	61.6	86	57.4	0	2	112	0.00	30.056 
06:45	61.5	61.5	61.5	86	57.3	1	5	112	0.00	30.053 
06:50	61.5	61.5	61.5	86	57.3	1	3	112	0.00	30.053 
06:55	61.3	61.3	61.3	86	57.1	0	3	112	0.00	30.053 
07:00	61.3	61.3	61.3	86	57.1	0	3	112	0.00	30.051 
07:05	61.2	61.2	61.2	87	57.3	0	2	112	0.00	30.051 
07:10	61.2	61.2	61.2	87	57.3	0	3	112	0.00	30.051 
07:15	61.0	61.0	61.0	87	57.1	0	2	112	0.00	30.061 
07:20	61.0	61.0	61.0	87	57.1	0	3	112	0.00	30.061 
07:25	61.0	61.0	61.0	87	57.1	0	2	112	0.00	30.061 
07:30	61.0	61.0	61.0	87	57.1	0	2	112	0.00	30.063 
07:35	61.0	61.0	61.0	87	57.1	1	5	112	0.00	30.063 
07:40	61.2	61.2	61.2	87	57.3	1	4	112	0.00	30.063 
07:45	61.3	61.3	61.3	87	57.4	1	4	112	0.00	30.061 
07:50	61.6	61.6	61.6	86	57.4	2	5	90	0.00	30.061 
07:55	62.0	62.0	62.0	86	57.8	1	4	90	0.00	30.061 
08:00	62.6	62.6	62.6	85	58.0	0	3	90	0.00	30.063 
08:05	63.1	63.1	63.1	83	57.8	1	4	90	0.00	30.063 
08:10	63.2	63.2	63.2	82	57.6	1	3	90	0.00	30.063 
08:15	63.2	63.2	63.2	83	57.9	1	2	90	0.00	30.066 
08:20	63.5	63.5	63.5	82	57.9	0	5	90	0.00	30.066 
08:25	63.4	63.4	63.4	81	57.5	2	7	90	0.00	30.066 
08:30	63.4	63.4	63.4	82	57.8	2	6	90	0.00	30.063 
08:35	63.5	63.5	63.5	82	57.9	1	4	90	0.00	30.063 
08:40	63.9	63.9	63.9	82	58.3	1	4	90	0.00	30.063 
08:45	64.3	64.3	64.3	80	58.0	2	4	112	0.00	30.063 
08:50	64.8	64.8	64.8	79	58.1	3	6	90	0.00	30.063 
08:55	65.3	65.3	65.3	78	58.3	2	6	90	0.00	30.063 
09:00	65.8	65.8	65.8	77	58.4	1	4	0	0.00	30.063 
09:05	66.0	66.0	66.0	77	58.6	1	3	90	0.00	30.063 
09:10	65.8	65.8	65.8	77	58.4	2	4	90	0.00	30.063 
09:15	65.8	65.8	65.8	78	58.7	2	6	90	0.00	30.062 
09:20	66.0	66.0	66.0	77	58.6	3	7	90	0.00	30.062 
09:25	66.1	66.1	66.1	78	59.0	2	4	90	0.00	30.062 
09:30	66.6	66.6	66.6	77	59.2	1	4	90	0.00	30.057 
09:35	67.3	67.3	67.3	76	59.5	1	3	90	0.00	30.057 
09:40	67.9	67.9	67.9	74	59.3	1	4	68	0.00	30.057 
09:45	68.8	68.8	68.8	73	59.8	1	4	68	0.00	30.061 
09:50	69.4	69.4	69.4	73	60.4	1	4	68	0.00	30.061 
09:55	69.9	69.9	69.9	69	59.3	1	4	68	0.00	30.061 
10:00	70.3	70.3	70.3	69	59.6	2	5	68	0.00	30.060 
10:05	70.3	70.3	70.3	69	59.6	3	9	90	0.00	30.060 
10:10	70.4	70.4	70.4	70	60.1	2	5	68	0.00	30.060 
10:15	70.6	70.6	70.6	68	59.5	3	7	90	0.00	30.062 
10:20	71.1	71.1	71.1	68	60.0	1	5	90	0.00	30.062 
10:25	71.6	71.6	71.6	66	59.6	2	5	90	0.00	30.062 
10:30	72.0	72.0	72.0	66	60.0	2	5	68	0.00	30.063 
10:35	72.3	72.3	72.3	66	60.3	1	5	90	0.00	30.063 
10:40	72.8	72.8	72.8	64	59.9	2	4	90	0.00	30.063 
10:45	73.3	73.3	73.3	62	59.5	2	4	90	0.00	30.065 
10:50	73.7	73.7	73.7	59	58.5	2	9	112	0.00	30.065 
10:55	73.5	73.5	73.5	61	59.2	3	7	90	0.00	30.065 
11:00	73.5	73.5	73.5	62	59.7	2	7	68	0.00	30.065 
11:05	74.0	74.0	74.0	61	59.7	1	5	90	0.00	30.065 
11:10	74.6	74.6	74.6	59	59.3	2	6	112	0.00	30.065 
11:15	74.9	74.9	74.9	58	59.1	2	6	68	0.00	30.069 
11:20	74.9	74.9	74.9	59	59.6	2	6	112	0.00	30.069 
11:25	75.3	75.3	77.6	57	59.0	2	5	90	0.00	30.069 
11:30	75.3	75.3	77.6	57	59.0	3	9	90	0.00	30.077 
11:35	75.8	75.8	78.0	55	58.5	2	5	90	0.00	30.077 
11:40	76.1	76.1	78.1	54	58.2	2	5	90	0.00	30.077 
11:45	76.7	76.7	78.5	53	58.3	2	7	90	0.00	30.072 
11:50	76.5	76.5	78.4	53	58.1	3	9	90	0.00	30.072 
11:55	76.5	76.5	78.4	53	58.1	2	8	90	0.00	30.072 
12:00	76.5	76.5	78.4	53	58.1	3	6	90	0.00	30.069 
12:05	76.7	76.7	78.5	54	58.8	1	5	90	0.00	30.069 
12:10	76.8	76.8	78.5	51	57.3	3	7	90	0.00	30.069 
12:15	77.0	77.0	78.6	51	57.5	2	10	90	0.00	30.068 
12:20	77.2	77.2	78.8	52	58.2	3	6	90	0.00	30.068 
12:25	77.4	77.4	78.9	51	57.8	2	5	90	0.00	30.068 
12:30	77.6	77.6	79.0	50	57.5	4	9	90	0.00	30.064 
12:35	77.4	77.4	78.9	51	57.8	4	10	90	0.00	30.064 
12:40	77.4	77.4	79.0	54	59.4	2	6	68	0.00	30.064 
12:45	77.9	77.9	79.2	50	57.7	2	7	68	0.00	30.060 
12:50	78.5	78.5	79.5	48	57.2	2	5	68	0.00	30.060 
12:55	78.5	78.5	79.5	49	57.7	3	7	90	0.00	30.060 
13:00	78.3	78.3	79.4	49	57.5	3	9	90	0.00	30.058 
13:05	78.1	78.1	79.2	48	56.8	4	11	90	0.00	30.058 
13:10	78.3	78.3	79.4	49	57.5	2	6	112	0.00	30.058 
13:15	78.6	78.6	79.4	46	56.1	2	6	90	0.00	30.060 
13:20	79.0	79.0	79.8	47	57.0	2	9	90	0.00	30.060 
13:25	78.6	78.6	79.6	49	57.8	2	7	68	0.00	30.060 
13:30	79.0	79.0	79.8	48	57.6	3	10	90	0.00	30.053 
13:35	79.0	79.0	80.0	50	58.7	2	6	90	0.00	30.053 
13:40	79.2	79.2	79.8	46	56.6	3	6	90	0.00	30.053 
13:45	79.2	79.2	80.1	49	58.4	3	7	90	0.00	30.049 
13:50	79.4	79.4	80.1	47	57.4	3	9	90	0.00	30.049 
13:55	79.6	79.6	80.1	46	57.0	2	7	90	0.00	30.049 
14:00	79.6	79.6	80.1	46	57.0	3	7	90	0.00	30.050 
14:05	79.9	79.9	80.4	47	57.8	2	5	90	0.00	30.050 
14:10	80.3	80.3	80.7	46	57.6	2	5	90	0.00	30.050 
14:15	80.3	80.3	80.7	46	57.6	3	8	90	0.00	30.050 
14:20	80.7	80.7	81.0	46	58.0	1	6	112	0.00	30.050 
14:25	80.7	80.7	80.8	44	56.7	3	6	112	0.00	30.050 
14:30	80.9	80.9	81.3	47	58.8	2	4	90	0.00	30.045 
14:35	81.1	81.1	81.3	45	57.7	2	7	90	0.00	30.045 
14:40	80.9	80.9	80.9	43	56.3	3	8	68	0.00	30.045 
14:45	80.7	80.7	80.8	44	56.7	3	7	90	0.00	30.045 
14:50	81.1	81.1	81.0	43	56.5	2	7	68	0.00	30.045 
14:55	81.1	81.1	80.8	41	55.1	2	5	90	0.00	30.045 
15:00	80.9	80.9	80.9	43	56.3	3	9	90	0.00	30.038 
15:05	80.9	80.9	80.8	42	55.6	4	7	90	0.00	30.038 
15:10	81.1	81.1	80.8	41	55.1	3	9	90	0.00	30.038 
15:15	81.2	81.2	80.8	40	54.6	2	9	68	0.00	30.032 
15:20	81.2	81.2	81.0	42	55.9	3	7	68	0.00	30.032 
15:25	81.2	81.2	80.8	40	54.6	2	6	90	0.00	30.032 
15:30	81.4	81.4	81.0	40	54.7	2	5	90	0.00	30.033 
15:35	81.4	81.4	81.2	42	56.1	3	7	90	0.00	30.033 
15:40	81.4	81.4	81.3	43	56.7	2	6	90	0.00	30.033 
15:45	81.6	81.6	81.3	42	56.3	3	7	90	0.00	30.031 
15:50	81.8	81.8	81.5	42	56.4	2	5	90	0.00	30.031 
15:55	81.8	81.8	81.6	43	57.1	3	10	90	0.00	30.031 
16:00	81.8	81.8	81.5	42	56.4	3	10	90	0.00	30.029 
16:05	81.6	81.6	81.3	42	56.3	3	10	90	0.00	30.029 
16:10	81.6	81.6	81.1	40	54.9	3	7	90	0.00	30.029 
16:15	82.0	82.0	81.3	39	54.6	1	5	90	0.00	30.029 
16:20	82.2	82.2	81.4	38	54.0	2	6	45	0.00	30.029 
16:25	82.4	82.4	81.7	39	54.9	2	6	90	0.00	30.029 
16:30	82.4	82.4	81.4	37	53.5	2	5	90	0.00	30.017 
16:35	82.4	82.4	81.3	36	52.7	2	6	90	0.00	30.017 
16:40	82.2	82.2	81.3	37	53.3	3	6	90	0.00	30.017 
16:45	82.0	82.0	81.3	39	54.6	2	7	68	0.00	30.015 
16:50	82.2	82.2	81.6	40	55.4	2	4	90	0.00	30.015 
16:55	82.4	82.4	81.8	40	55.6	2	6	90	0.00	30.015 
17:00	82.4	82.4	82.2	43	57.6	2	6	112	0.00	30.013 
17:05	82.2	82.2	82.0	43	57.4	2	7	90	0.00	30.013 
17:10	82.4	82.4	81.9	41	56.3	3	7	90	0.00	30.013 
17:15	82.2	82.2	81.9	42	56.8	2	7	68	0.00	30.011 
17:20	82.0	82.0	81.6	41	55.9	2	6	68	0.00	30.011 
17:25	82.0	82.0	81.7	42	56.6	2	5	90	0.00	30.011 
17:30	82.2	82.2	81.7	41	56.1	1	5	112	0.00	30.005 
17:35	82.2	82.2	82.0	43	57.4	1	4	68	0.00	30.005 
17:40	82.4	82.4	82.0	42	57.0	1	7	68	0.00	30.005 
17:45	82.2	82.2	81.5	39	54.7	2	7	90	0.00	30.007 
17:50	82.0	82.0	81.6	41	55.9	2	5	68	0.00	30.007 
17:55	81.8	81.8	81.5	42	56.4	2	9	68	0.00	30.007 
18:00	81.6	81.6	81.5	43	56.9	3	7	90	0.00	30.006 
18:05	81.4	81.4	81.4	44	57.4	3	7	90	0.00	30.006 
18:10	81.1	81.1	81.3	45	57.7	3	7	68	0.00	30.006 
18:15	81.1	81.1	81.3	45	57.7	2	7	90	0.00	30.010 
18:20	80.9	80.9	81.1	45	57.5	2	6	90	0.00	30.010 
18:25	80.7	80.7	80.8	44	56.7	2	10	135	0.00	30.010 
18:30	80.3	80.3	80.6	45	57.0	3	5	90	0.00	30.004 
18:35	80.1	80.1	80.4	45	56.8	3	7	90	0.00	30.004 
18:40	80.1	80.1	80.5	46	57.4	1	7	90	0.00	30.004 
18:45	79.8	79.8	80.4	47	57.8	3	8	90	0.00	30.001 
18:50	79.6	79.6	80.1	46	57.0	2	7	90	0.00	30.001 
18:55	79.4	79.4	80.0	46	56.8	3	8	90	0.00	30.001 
19:00	79.2	79.2	79.9	47	57.2	2	5	112	0.00	30.000 
19:05	79.0	79.0	79.9	49	58.2	1	4	90	0.00	30.000 
19:10	78.8	78.8	79.6	47	56.8	3	10	90	0.00	30.000 
19:15	78.6	78.6	79.5	47	56.7	3	7	112	0.00	29.999 
19:20	78.3	78.3	79.3	48	57.0	1	4	112	0.00	29.999 
19:25	78.1	78.1	79.2	48	56.8	2	4	112	0.00	29.999 
19:30	78.1	78.1	79.3	49	57.4	1	4	112	0.00	30.002 
19:35	77.9	77.9	79.1	48	56.6	1	3	90	0.00	30.002 
19:40	77.7	77.7	79.0	49	57.0	1	4	90	0.00	30.002 
19:45	77.4	77.4	78.8	49	56.7	2	9	90	0.00	30.002 
19:50	77.0	77.0	78.6	49	56.4	2	7	90	0.00	30.002 
19:55	76.8	76.8	78.5	50	56.7	1	4	90	0.00	30.002 
20:00	76.5	76.5	78.3	50	56.5	2	5	90	0.00	30.003 
20:05	76.3	76.3	78.2	51	56.8	1	3	90	0.00	30.003 
20:10	76.0	76.0	78.1	50	56.0	2	5	90	0.00	30.003 
20:15	75.8	75.8	78.0	51	56.4	1	3	112	0.00	30.005 
20:20	75.4	75.4	77.8	51	56.0	1	4	90	0.00	30.005 
20:25	75.1	75.1	77.7	51	55.7	1	3	90	0.00	30.005 
20:30	74.7	74.7	74.7	51	55.4	1	4	90	0.00	30.011 
20:35	74.4	74.4	74.4	51	55.1	0	3	90	0.00	30.011 
20:40	73.9	73.9	73.9	51	54.6	0	3	90	0.00	30.011 
20:45	73.5	73.5	73.5	51	54.2	0	1	90	0.00	30.012 
20:50	73.2	73.2	73.2	52	54.5	0	1	90	0.00	30.012 
20:55	72.7	72.7	72.7	52	54.0	0	1	90	0.00	30.012 
21:00	72.5	72.5	72.5	52	53.9	0	3	90	0.00	30.021 
21:05	72.1	72.1	72.1	52	53.5	0	2	90	0.00	30.021 
21:10	71.8	71.8	71.8	53	53.7	0	4	90	0.00	30.021 
21:15	71.6	71.6	71.6	54	54.1	0	2	90	0.00	30.026 
21:20	71.3	71.3	71.3	54	53.8	0	2	90	0.00	30.026 
21:25	71.1	71.1	71.1	55	54.1	0	3	90	0.00	30.026 
21:30	70.9	70.9	70.9	56	54.4	0	2	90	0.00	30.032 
21:35	70.8	70.8	70.8	57	54.8	0	3	90	0.00	30.032 
21:40	70.6	70.6	70.6	58	55.1	0	2	90	0.00	30.032 
21:45	70.3	70.3	70.3	58	54.8	0	2	90	0.00	30.037 
21:50	70.1	70.1	70.1	58	54.6	1	3	90	0.00	30.037 
21:55	69.8	69.8	69.8	58	54.3	0	2	90	0.00	30.037 
22:00	69.6	69.6	69.6	59	54.6	0	2	90	0.00	30.047 
22:05	69.4	69.4	69.4	60	54.9	0	3	90	0.00	30.047 
22:10	69.3	69.3	69.3	60	54.8	0	2	90	0.00	30.047 
22:15	68.9	68.9	68.9	61	54.9	0	2	90	0.00	30.044 
22:20	68.8	68.8	68.8	61	54.8	0	2	90	0.00	30.044 
22:25	68.6	68.6	68.6	61	54.6	0	2	90	0.00	30.044 
22:30	68.4	68.4	68.4	62	54.9	0	0	---	0.00	30.042 
22:35	68.3	68.3	68.3	62	54.8	0	1	90	0.00	30.042 
22:40	67.9	67.9	67.9	63	54.8	0	1	90	0.00	30.042 
22:45	67.8	67.8	67.8	63	54.7	0	1	90	0.00	30.048 
22:50	67.6	67.6	67.6	63	54.5	0	3	90	0.00	30.048 
22:55	67.4	67.4	67.4	64	54.8	0	2	90	0.00	30.048 
23:00	67.3	67.3	67.3	64	54.7	0	1	90	0.00	30.048 
23:05	67.1	67.1	67.1	65	54.9	0	1	90	0.00	30.048 
23:10	67.1	67.1	67.1	65	54.9	0	3	90	0.00	30.048 
23:15	66.9	66.9	66.9	66	55.2	0	2	90	0.00	30.045 
23:20	66.8	66.8	66.8	66	55.1	1	4	90	0.00	30.045 
23:25	66.8	66.8	66.8	67	55.5	0	2	90	0.00	30.045 
23:30	66.8	66.8	66.8	67	55.5	0	2	90	0.00	30.038 
23:35	66.6	66.6	66.6	68	55.7	0	3	90	0.00	30.038 
23:40	66.4	66.4	66.4	69	55.9	0	2	90	0.00	30.038 
23:45	66.3	66.3	66.3	69	55.8	0	2	90	0.00	30.039 
23:50	66.1	66.1	66.1	69	55.6	0	1	90	0.00	30.039 
23:55	66.0	66.0	66.0	69	55.5	0	2	90	0.00	30.039 

CoCoRaHS
IN-AL-39
A2 Web Hosting
Creative Commons License
GoDaddy
search engine by freefind advanced

loaded 2018-11-16 00:04:05 • last modified 2010-11-18 10:43:29
Privacy PolicyDisclaimer
• wx.awcolley.com is powered by PmWiki v.2002016 •
• all content (unless otherwise noted) © 2018 A W Colley